LOT15 EPWA-LMML
Flight info
| Callsign | LOT15 |
|---|---|
| Flight time | N/A |
| Altitude | 38000 |
| Route | EVINA M66 BABKO DCT UPIVA DCT XOMBA DCT VEBAL DCT KATTI DCT VEBOX DCT KUTID DCT LIBRO N982 GZO DCT LMML |
| Aircraft | B738/M-SDE2E3FGHIRWXY/LB1 |
Departure
| Time | 2026-05-01 14:15 |
|---|---|
| Airport | Warsaw Chopin Airport (EPWA) |
Arrival
| Time | N/A |
|---|---|
| Airport | Malta International Airport (LMML) |
| Time | Latitude | Longitude | Altitude | Speed | Heading |
|---|---|---|---|---|---|
| 2026-05-01 13:58 | 52.17375 | 20.97047 | 341 ft | 0 kts | 241° |
| 2026-05-01 14:04 | 52.17379 | 20.97057 | 341 ft | 2 kts | 237° |
| 2026-05-01 14:04 | 52.17387 | 20.97078 | 341 ft | 2 kts | 242° |
| 2026-05-01 14:04 | 52.17391 | 20.97092 | 341 ft | 2 kts | 241° |
| 2026-05-01 14:05 | 52.17401 | 20.97121 | 342 ft | 2 kts | 245° |
| 2026-05-01 14:05 | 52.17401 | 20.97145 | 342 ft | 2 kts | 294° |
| 2026-05-01 14:05 | 52.17394 | 20.97161 | 343 ft | 0 kts | 327° |
| 2026-05-01 14:05 | 52.17388 | 20.97165 | 343 ft | 1 kts | 331° |
| 2026-05-01 14:06 | 52.17387 | 20.97166 | 343 ft | 0 kts | 331° |
| 2026-05-01 14:08 | 52.17388 | 20.97166 | 343 ft | 0 kts | 331° |
| 2026-05-01 14:08 | 52.17397 | 20.97158 | 343 ft | 2 kts | 331° |
| 2026-05-01 14:08 | 52.17425 | 20.97132 | 342 ft | 6 kts | 330° |
| 2026-05-01 14:08 | 52.17474 | 20.97086 | 341 ft | 9 kts | 330° |
| 2026-05-01 14:09 | 52.17543 | 20.97025 | 341 ft | 12 kts | 332° |
| 2026-05-01 14:09 | 52.17612 | 20.96957 | 341 ft | 11 kts | 311° |
| 2026-05-01 14:09 | 52.17604 | 20.96836 | 340 ft | 12 kts | 240° |
| 2026-05-01 14:09 | 52.17552 | 20.96696 | 337 ft | 16 kts | 239° |
| 2026-05-01 14:10 | 52.17486 | 20.96578 | 334 ft | 13 kts | 191° |
| 2026-05-01 14:10 | 52.17397 | 20.96633 | 334 ft | 14 kts | 152° |
| 2026-05-01 14:10 | 52.17305 | 20.96714 | 334 ft | 14 kts | 152° |
| 2026-05-01 14:10 | 52.17216 | 20.96794 | 333 ft | 12 kts | 151° |
| 2026-05-01 14:11 | 52.17130 | 20.96872 | 333 ft | 15 kts | 150° |
| 2026-05-01 14:11 | 52.16905 | 20.97067 | 334 ft | 19 kts | 151° |
| 2026-05-01 14:11 | 52.16795 | 20.97166 | 336 ft | 16 kts | 151° |
| 2026-05-01 14:12 | 52.16695 | 20.97255 | 336 ft | 16 kts | 151° |
| 2026-05-01 14:12 | 52.16600 | 20.97344 | 336 ft | 15 kts | 146° |
| 2026-05-01 14:12 | 52.16545 | 20.97478 | 337 ft | 13 kts | 115° |
| 2026-05-01 14:12 | 52.16505 | 20.97620 | 336 ft | 14 kts | 115° |
| 2026-05-01 14:13 | 52.16465 | 20.97762 | 336 ft | 12 kts | 117° |
| 2026-05-01 14:13 | 52.16422 | 20.97811 | 335 ft | 11 kts | 181° |
| 2026-05-01 14:13 | 52.16322 | 20.97736 | 333 ft | 7 kts | 208° |
| 2026-05-01 14:13 | 52.16308 | 20.97665 | 333 ft | 7 kts | 285° |
| 2026-05-01 14:14 | 52.16324 | 20.97601 | 335 ft | 5 kts | 294° |
| 2026-05-01 14:14 | 52.16380 | 20.97403 | 336 ft | 53 kts | 295° |
| 2026-05-01 14:14 | 52.16647 | 20.96449 | 333 ft | 129 kts | 295° |
| 2026-05-01 14:14 | 52.17106 | 20.94818 | 477 ft | 179 kts | 296° |
| 2026-05-01 14:15 | 52.17608 | 20.92959 | 1337 ft | 182 kts | 297° |
| 2026-05-01 14:15 | 52.18061 | 20.91214 | 2063 ft | 166 kts | 298° |
| 2026-05-01 14:15 | 52.18335 | 20.89340 | 2319 ft | 182 kts | 268° |
| 2026-05-01 14:15 | 52.17968 | 20.87239 | 2519 ft | 199 kts | 254° |
| 2026-05-01 14:16 | 52.17549 | 20.85017 | 2771 ft | 209 kts | 260° |
| 2026-05-01 14:16 | 52.17226 | 20.82657 | 2993 ft | 221 kts | 262° |
| 2026-05-01 14:16 | 52.16911 | 20.80122 | 3179 ft | 237 kts | 262° |
| 2026-05-01 14:16 | 52.16562 | 20.77410 | 3435 ft | 254 kts | 261° |
| 2026-05-01 14:17 | 52.16177 | 20.74525 | 4043 ft | 268 kts | 261° |
| 2026-05-01 14:17 | 52.15600 | 20.71600 | 4752 ft | 280 kts | 246° |
| 2026-05-01 14:17 | 52.14401 | 20.69048 | 5510 ft | 291 kts | 224° |
| 2026-05-01 14:17 | 52.12803 | 20.66998 | 6363 ft | 294 kts | 217° |
| 2026-05-01 14:18 | 52.11144 | 20.65069 | 7117 ft | 300 kts | 217° |
| 2026-05-01 14:18 | 52.09441 | 20.63058 | 7888 ft | 306 kts | 218° |
| 2026-05-01 14:18 | 52.07735 | 20.60973 | 8650 ft | 311 kts | 219° |
| 2026-05-01 14:18 | 52.06586 | 20.59540 | 9152 ft | 314 kts | 219° |
| 2026-05-01 14:19 | 52.04252 | 20.56596 | 10080 ft | 324 kts | 219° |
| 2026-05-01 14:19 | 52.02490 | 20.54368 | 10789 ft | 329 kts | 219° |
| 2026-05-01 14:19 | 52.00617 | 20.52001 | 11217 ft | 345 kts | 219° |
| 2026-05-01 14:19 | 51.98687 | 20.49568 | 11625 ft | 361 kts | 219° |
| 2026-05-01 14:20 | 51.96651 | 20.47026 | 12078 ft | 375 kts | 217° |
| 2026-05-01 14:20 | 51.91866 | 20.43578 | 13348 ft | 385 kts | 187° |
| 2026-05-01 14:20 | 51.89213 | 20.43074 | 14048 ft | 388 kts | 182° |
| 2026-05-01 14:21 | 51.86507 | 20.42788 | 14711 ft | 392 kts | 180° |
| 2026-05-01 14:21 | 51.83781 | 20.42547 | 15413 ft | 395 kts | 180° |
| 2026-05-01 14:21 | 51.81037 | 20.42270 | 16062 ft | 400 kts | 181° |
| 2026-05-01 14:22 | 51.75421 | 20.41545 | 17389 ft | 408 kts | 182° |
| 2026-05-01 14:22 | 51.72592 | 20.41129 | 17980 ft | 413 kts | 182° |
| 2026-05-01 14:22 | 51.69732 | 20.40695 | 18580 ft | 417 kts | 182° |
| 2026-05-01 14:22 | 51.66847 | 20.40253 | 19207 ft | 420 kts | 182° |
| 2026-05-01 14:23 | 51.63888 | 20.39798 | 19803 ft | 424 kts | 182° |
| 2026-05-01 14:23 | 51.60957 | 20.39350 | 20420 ft | 427 kts | 182° |
| 2026-05-01 14:23 | 51.57986 | 20.38899 | 20984 ft | 431 kts | 182° |
| 2026-05-01 14:23 | 51.55012 | 20.38450 | 21559 ft | 433 kts | 182° |
| 2026-05-01 14:24 | 51.51998 | 20.37995 | 22094 ft | 437 kts | 181° |
| 2026-05-01 14:24 | 51.48982 | 20.37542 | 22604 ft | 441 kts | 182° |
| 2026-05-01 14:24 | 51.45889 | 20.37076 | 23164 ft | 444 kts | 181° |
| 2026-05-01 14:24 | 51.42836 | 20.36616 | 23638 ft | 448 kts | 182° |
| 2026-05-01 14:25 | 51.39733 | 20.36000 | 24139 ft | 453 kts | 186° |
| 2026-05-01 14:25 | 51.36623 | 20.34984 | 24639 ft | 459 kts | 190° |
| 2026-05-01 14:25 | 51.33507 | 20.33606 | 25209 ft | 461 kts | 193° |
| 2026-05-01 14:25 | 51.30462 | 20.32071 | 25674 ft | 465 kts | 195° |
| 2026-05-01 14:26 | 51.27378 | 20.30432 | 26084 ft | 469 kts | 195° |
| 2026-05-01 14:26 | 51.21175 | 20.27074 | 26961 ft | 474 kts | 195° |
| 2026-05-01 14:26 | 51.18057 | 20.25400 | 27383 ft | 477 kts | 195° |
| 2026-05-01 14:27 | 51.14903 | 20.23723 | 27827 ft | 479 kts | 195° |
| 2026-05-01 14:27 | 51.11727 | 20.22050 | 28245 ft | 481 kts | 195° |
| 2026-05-01 14:27 | 51.08542 | 20.20386 | 28651 ft | 484 kts | 195° |
| 2026-05-01 14:28 | 51.02045 | 20.17023 | 29390 ft | 490 kts | 194° |
| 2026-05-01 14:28 | 50.98796 | 20.15353 | 29748 ft | 493 kts | 194° |
| 2026-05-01 14:28 | 50.95499 | 20.13663 | 30147 ft | 494 kts | 194° |
| 2026-05-01 14:28 | 50.92231 | 20.11992 | 30500 ft | 497 kts | 194° |
| 2026-05-01 14:29 | 50.88947 | 20.10315 | 30856 ft | 499 kts | 194° |
| 2026-05-01 14:29 | 50.85598 | 20.08610 | 31093 ft | 503 kts | 195° |
| 2026-05-01 14:30 | 50.75557 | 20.03513 | 32021 ft | 508 kts | 195° |
| 2026-05-01 14:30 | 50.72190 | 20.01807 | 32257 ft | 512 kts | 195° |
| 2026-05-01 14:30 | 50.68800 | 20.00093 | 32472 ft | 515 kts | 195° |
| 2026-05-01 14:31 | 50.61998 | 19.96657 | 33312 ft | 511 kts | 195° |
| 2026-05-01 14:31 | 50.58601 | 19.94944 | 33646 ft | 511 kts | 195° |
| 2026-05-01 14:31 | 50.55246 | 19.93255 | 33946 ft | 511 kts | 195° |
| 2026-05-01 14:31 | 50.51840 | 19.91542 | 34207 ft | 512 kts | 195° |
| 2026-05-01 14:32 | 50.48499 | 19.89866 | 34520 ft | 512 kts | 195° |
| 2026-05-01 14:32 | 50.45083 | 19.88157 | 34811 ft | 511 kts | 195° |
| 2026-05-01 14:32 | 50.41720 | 19.86478 | 35131 ft | 510 kts | 195° |
| 2026-05-01 14:32 | 50.38351 | 19.84797 | 35446 ft | 509 kts | 195° |
| 2026-05-01 14:33 | 50.34940 | 19.83097 | 35729 ft | 508 kts | 195° |
| 2026-05-01 14:33 | 50.31592 | 19.81432 | 35980 ft | 508 kts | 195° |
| 2026-05-01 14:33 | 50.28243 | 19.79770 | 36234 ft | 507 kts | 195° |
| 2026-05-01 14:33 | 50.24865 | 19.78098 | 36527 ft | 506 kts | 196° |
| 2026-05-01 14:34 | 50.21524 | 19.76444 | 36818 ft | 505 kts | 196° |
| 2026-05-01 14:34 | 50.18145 | 19.74771 | 37179 ft | 504 kts | 195° |
| 2026-05-01 14:34 | 50.14834 | 19.73134 | 37571 ft | 501 kts | 196° |
| 2026-05-01 14:34 | 50.11547 | 19.71512 | 37973 ft | 498 kts | 196° |
| 2026-05-01 14:35 | 50.08247 | 19.69886 | 38318 ft | 496 kts | 196° |
| 2026-05-01 14:35 | 50.01599 | 19.66623 | 38310 ft | 501 kts | 196° |
| 2026-05-01 14:36 | 49.94960 | 19.63373 | 38307 ft | 500 kts | 196° |
| 2026-05-01 14:36 | 49.88338 | 19.60138 | 38295 ft | 499 kts | 195° |
| 2026-05-01 14:37 | 49.81691 | 19.56899 | 38300 ft | 500 kts | 195° |
| 2026-05-01 14:37 | 49.75040 | 19.53670 | 38293 ft | 500 kts | 195° |
| 2026-05-01 14:38 | 49.68379 | 19.50443 | 38297 ft | 500 kts | 196° |
| 2026-05-01 14:38 | 49.61744 | 19.47229 | 38294 ft | 501 kts | 197° |
| 2026-05-01 14:39 | 49.55216 | 19.43501 | 38293 ft | 502 kts | 201° |
| 2026-05-01 14:39 | 49.48753 | 19.39279 | 38285 ft | 502 kts | 202° |
| 2026-05-01 14:40 | 49.42365 | 19.35031 | 38283 ft | 501 kts | 202° |
| 2026-05-01 14:40 | 49.35923 | 19.30807 | 38286 ft | 502 kts | 201° |
| 2026-05-01 14:41 | 49.29498 | 19.26659 | 38290 ft | 501 kts | 201° |
| 2026-05-01 14:41 | 49.23098 | 19.22570 | 38286 ft | 500 kts | 201° |
| 2026-05-01 14:42 | 49.16657 | 19.18482 | 38298 ft | 502 kts | 201° |
| 2026-05-01 14:42 | 49.10237 | 19.14424 | 38291 ft | 501 kts | 201° |
| 2026-05-01 14:43 | 49.03820 | 19.10377 | 38293 ft | 502 kts | 201° |
| 2026-05-01 14:43 | 48.97390 | 19.06334 | 38289 ft | 502 kts | 200° |
| 2026-05-01 14:44 | 48.90952 | 19.02293 | 38287 ft | 503 kts | 200° |
| 2026-05-01 14:44 | 48.81263 | 18.96238 | 38279 ft | 502 kts | 201° |
| 2026-05-01 14:45 | 48.71592 | 18.90220 | 38276 ft | 503 kts | 200° |
| 2026-05-01 14:46 | 48.65132 | 18.86213 | 38290 ft | 503 kts | 200° |
| 2026-05-01 14:46 | 48.55616 | 18.79678 | 38296 ft | 503 kts | 208° |
| 2026-05-01 14:47 | 48.49580 | 18.74329 | 38297 ft | 505 kts | 211° |
| 2026-05-01 14:48 | 48.40672 | 18.65882 | 38301 ft | 505 kts | 212° |
| 2026-05-01 14:48 | 48.31761 | 18.57480 | 38286 ft | 505 kts | 212° |
| 2026-05-01 14:49 | 48.19815 | 18.46415 | 38303 ft | 505 kts | 211° |
| 2026-05-01 14:50 | 48.07812 | 18.35409 | 38297 ft | 507 kts | 212° |
| 2026-05-01 14:51 | 47.98782 | 18.27172 | 38300 ft | 506 kts | 211° |
| 2026-05-01 14:52 | 47.89716 | 18.18932 | 38274 ft | 506 kts | 210° |
| 2026-05-01 14:53 | 47.80694 | 18.10789 | 38309 ft | 506 kts | 210° |
| 2026-05-01 14:53 | 47.74447 | 18.05964 | 38305 ft | 504 kts | 201° |
| 2026-05-01 14:54 | 47.67855 | 18.02427 | 38308 ft | 504 kts | 195° |
| 2026-05-01 14:54 | 47.61176 | 17.99476 | 38302 ft | 503 kts | 193° |
| 2026-05-01 14:55 | 47.54446 | 17.96604 | 38305 ft | 502 kts | 193° |
| 2026-05-01 14:55 | 47.47718 | 17.93697 | 38299 ft | 503 kts | 194° |
| 2026-05-01 14:56 | 47.41023 | 17.90768 | 38321 ft | 503 kts | 194° |
| 2026-05-01 14:56 | 47.34358 | 17.87831 | 38306 ft | 502 kts | 194° |
| 2026-05-01 14:57 | 47.27643 | 17.84870 | 38291 ft | 504 kts | 194° |
| 2026-05-01 14:57 | 47.17601 | 17.80456 | 38298 ft | 503 kts | 194° |
| 2026-05-01 14:58 | 47.10862 | 17.77505 | 38287 ft | 505 kts | 194° |
| 2026-05-01 14:58 | 47.04126 | 17.74561 | 38306 ft | 504 kts | 194° |
| 2026-05-01 14:59 | 46.97395 | 17.71630 | 38296 ft | 503 kts | 194° |
| 2026-05-01 14:59 | 46.90658 | 17.68705 | 38302 ft | 504 kts | 194° |
| 2026-05-01 15:00 | 46.80613 | 17.64352 | 38286 ft | 503 kts | 194° |
| 2026-05-01 15:01 | 46.73909 | 17.61456 | 38314 ft | 503 kts | 194° |
| 2026-05-01 15:01 | 46.67158 | 17.58548 | 38317 ft | 501 kts | 194° |
| 2026-05-01 15:02 | 46.60429 | 17.55661 | 38294 ft | 503 kts | 194° |
| 2026-05-01 15:02 | 46.53737 | 17.52796 | 38322 ft | 503 kts | 194° |
| 2026-05-01 15:03 | 46.47001 | 17.49918 | 38317 ft | 502 kts | 194° |
| 2026-05-01 15:03 | 46.40302 | 17.47061 | 38300 ft | 502 kts | 194° |
| 2026-05-01 15:04 | 46.33610 | 17.44216 | 38303 ft | 502 kts | 194° |
| 2026-05-01 15:04 | 46.26892 | 17.41369 | 38299 ft | 502 kts | 194° |
| 2026-05-01 15:05 | 46.20166 | 17.38526 | 38302 ft | 502 kts | 194° |
| 2026-05-01 15:05 | 46.13473 | 17.35704 | 38280 ft | 502 kts | 194° |
| 2026-05-01 15:06 | 46.06789 | 17.32891 | 38297 ft | 500 kts | 193° |
| 2026-05-01 15:06 | 46.00087 | 17.30080 | 38285 ft | 501 kts | 193° |
| 2026-05-01 15:07 | 45.93399 | 17.27379 | 38301 ft | 501 kts | 192° |
| 2026-05-01 15:07 | 45.86619 | 17.24820 | 38278 ft | 499 kts | 192° |
| 2026-05-01 15:08 | 45.79922 | 17.22332 | 38306 ft | 500 kts | 192° |
| 2026-05-01 15:08 | 45.73159 | 17.19809 | 38281 ft | 499 kts | 192° |
| 2026-05-01 15:09 | 45.66418 | 17.17283 | 38290 ft | 500 kts | 192° |
| 2026-05-01 15:09 | 45.59658 | 17.14745 | 38292 ft | 499 kts | 192° |
| 2026-05-01 15:10 | 45.52929 | 17.12221 | 38283 ft | 499 kts | 193° |
| 2026-05-01 15:10 | 45.42825 | 17.08443 | 38304 ft | 499 kts | 193° |
| 2026-05-01 15:11 | 45.32741 | 17.04686 | 38275 ft | 499 kts | 193° |
| 2026-05-01 15:12 | 45.26033 | 17.02194 | 38295 ft | 498 kts | 193° |
| 2026-05-01 15:12 | 45.15940 | 16.98456 | 38284 ft | 498 kts | 193° |
| 2026-05-01 15:14 | 44.99181 | 16.92284 | 38304 ft | 498 kts | 193° |
| 2026-05-01 15:14 | 44.89115 | 16.88594 | 38306 ft | 497 kts | 193° |
| 2026-05-01 15:15 | 44.75742 | 16.83714 | 38281 ft | 496 kts | 194° |
| 2026-05-01 15:16 | 44.62382 | 16.78857 | 38271 ft | 497 kts | 194° |
| 2026-05-01 15:18 | 44.45623 | 16.72801 | 38237 ft | 497 kts | 194° |
| 2026-05-01 15:19 | 44.32319 | 16.68014 | 38210 ft | 495 kts | 194° |
| 2026-05-01 15:19 | 44.22375 | 16.64455 | 38192 ft | 494 kts | 194° |
| 2026-05-01 15:20 | 44.12499 | 16.60932 | 38187 ft | 492 kts | 194° |
| 2026-05-01 15:21 | 44.05823 | 16.58555 | 38184 ft | 495 kts | 194° |
| 2026-05-01 15:21 | 43.99179 | 16.56196 | 38183 ft | 492 kts | 194° |
| 2026-05-01 15:22 | 43.89203 | 16.52666 | 38194 ft | 492 kts | 194° |
| 2026-05-01 15:22 | 43.82547 | 16.50321 | 38209 ft | 493 kts | 194° |
| 2026-05-01 15:23 | 43.75853 | 16.47965 | 38214 ft | 491 kts | 195° |
| 2026-05-01 15:23 | 43.69224 | 16.45635 | 38234 ft | 490 kts | 194° |
| 2026-05-01 15:24 | 43.62629 | 16.43325 | 38220 ft | 490 kts | 195° |
| 2026-05-01 15:24 | 43.56019 | 16.41015 | 38218 ft | 486 kts | 195° |
| 2026-05-01 15:25 | 43.49412 | 16.38710 | 38212 ft | 489 kts | 195° |
| 2026-05-01 15:25 | 43.42826 | 16.36416 | 38211 ft | 486 kts | 195° |
| 2026-05-01 15:26 | 43.36304 | 16.34150 | 38211 ft | 486 kts | 194° |
| 2026-05-01 15:26 | 43.29695 | 16.31860 | 38212 ft | 487 kts | 195° |
| 2026-05-01 15:27 | 43.23149 | 16.29596 | 38201 ft | 485 kts | 194° |
| 2026-05-01 15:28 | 43.13328 | 16.26211 | 38190 ft | 484 kts | 195° |
| 2026-05-01 15:28 | 43.06832 | 16.23978 | 38197 ft | 484 kts | 195° |
| 2026-05-01 15:29 | 42.97038 | 16.20620 | 38191 ft | 480 kts | 195° |
| 2026-05-01 15:30 | 42.84028 | 16.16174 | 38192 ft | 480 kts | 195° |
| 2026-05-01 15:31 | 42.64530 | 16.09552 | 38197 ft | 481 kts | 195° |
| 2026-05-01 15:32 | 42.51517 | 16.05154 | 38200 ft | 480 kts | 195° |
| 2026-05-01 15:34 | 42.32288 | 15.97772 | 38204 ft | 477 kts | 198° |